Terminal Aerodrome Forecast
Issued by NWS

Home | Current Version | Previous Version | Text Only | Print | Product List | Glossary On
Versions: 1 2 3 4 5 6 7 8 9 10 11 12 13 14 15 16 17 18 19 20 21 22 23 24 25 26 27 28 29 30 31 32 33 34
682
FTUS46 KPQR 242109 AAA
TAFONP
TAF AMD
KONP 242109Z 2421/2518 19018G30KT P6SM SCT017 BKN030
      TEMPO 2421/2424 -SHRA BKN017 OVC035
     FM250000 21013G24KT P6SM -SHRA SCT020 BKN030
     FM250200 22007KT P6SM -SHRA SCT025 BKN035
     FM251000 21004KT P6SM -SHRA BKN025=

USA.gov is the U.S. government's official web portal to all federal, state and local government web resources and services.